Time;durP1;ratioP1;P1;durP2;ratioP2;P2;SDS_P1;SDS_P2;PMS_P1;PMS_P2;Temp;Humidity;BMP_temperature;BMP_pressure;BME280_temperature;BME280_humidity;BME280_pressure;Samples;Min_cycle;Max_cycle;Signal;HPM_P1;HPM_P2
2020/12/17 00:01:07;;;;;;;17.73;13.18;;;;;;;;;;5084589;28;20062;-68
2020/12/17 00:03:33;;;;;;;28.65;14.40;;;;;;;;;;5087134;28;20068;-68
2020/12/17 00:05:58;;;;;;;22.08;15.30;;;;;;;;;;5087222;28;20032;-68
2020/12/17 00:08:23;;;;;;;28.05;13.60;;;;;;;;;;5087742;28;21567;-69
2020/12/17 00:10:49;;;;;;;44.92;14.05;;;;;;;;;;5089780;28;20471;-69
2020/12/17 00:13:14;;;;;;;23.85;11.65;;;;;;;;;;5086891;28;20243;-68
2020/12/17 00:15:40;;;;;;;56.25;14.90;;;;;;;;;;5087344;28;20035;-68
2020/12/17 00:18:05;;;;;;;62.30;13.65;;;;;;;;;;5085120;28;20038;-68
2020/12/17 00:20:30;;;;;;;76.10;14.65;;;;;;;;;;5088242;28;20486;-68
2020/12/17 00:22:56;;;;;;;145.98;17.63;;;;;;;;;;5088916;28;20028;-67
2020/12/17 00:25:21;;;;;;;97.75;15.90;;;;;;;;;;5086423;28;20396;-68
2020/12/17 00:27:47;;;;;;;32.17;14.32;;;;;;;;;;5088685;28;20115;-68
2020/12/17 00:30:15;;;;;;;54.95;15.10;;;;;;;;;;5087744;28;20172;-68
2020/12/17 00:32:41;;;;;;;41.33;14.98;;;;;;;;;;5087352;28;20056;-68
2020/12/17 00:35:07;;;;;;;51.42;16.35;;;;;;;;;;5085038;28;20417;-68
2020/12/17 00:37:34;;;;;;;21.13;14.02;;;;;;;;;;5086927;28;20119;-68
2020/12/17 00:40:02;;;;;;;49.05;16.58;;;;;;;;;;5087619;28;20032;-68
2020/12/17 00:42:27;;;;;;;64.57;16.40;;;;;;;;;;5087598;28;20113;-68
2020/12/17 00:44:53;;;;;;;49.97;15.77;;;;;;;;;;5093453;28;20455;-68
2020/12/17 00:47:18;;;;;;;33.10;16.15;;;;;;;;;;5072472;28;20077;-68
2020/12/17 00:49:44;;;;;;;53.08;17.50;;;;;;;;;;5091980;28;20036;-68
2020/12/17 00:52:10;;;;;;;64.55;16.55;;;;;;;;;;5089212;28;20032;-67
2020/12/17 00:54:39;;;;;;;63.75;16.80;;;;;;;;;;5091405;28;20123;-67
2020/12/17 00:57:05;;;;;;;73.78;17.10;;;;;;;;;;5087438;28;20020;-67
2020/12/17 00:59:31;;;;;;;92.43;18.02;;;;;;;;;;5091134;28;20043;-68
2020/12/17 01:01:56;;;;;;;40.58;16.83;;;;;;;;;;5091940;28;20025;-68
2020/12/17 01:04:21;;;;;;;74.43;19.20;;;;;;;;;;5073893;28;20044;-68
2020/12/17 01:06:47;;;;;;;74.85;17.23;;;;;;;;;;5092066;28;20506;-68
2020/12/17 01:09:12;;;;;;;78.20;18.10;;;;;;;;;;5091270;28;20078;-68
2020/12/17 01:11:37;;;;;;;81.95;18.13;;;;;;;;;;5090107;28;20632;-68
2020/12/17 01:14:03;;;;;;;41.40;16.58;;;;;;;;;;5090485;28;20023;-68
2020/12/17 01:16:29;;;;;;;27.55;17.13;;;;;;;;;;5091844;28;20367;-69
2020/12/17 01:18:54;;;;;;;47.30;17.60;;;;;;;;;;5089197;28;20028;-68
2020/12/17 01:21:20;;;;;;;31.52;16.45;;;;;;;;;;5092320;28;20537;-68
2020/12/17 01:23:45;;;;;;;45.05;16.40;;;;;;;;;;5090436;28;20031;-67
2020/12/17 01:26:10;;;;;;;19.58;15.68;;;;;;;;;;5092342;28;20619;-68
2020/12/17 01:28:38;;;;;;;21.98;14.60;;;;;;;;;;5092461;28;20463;-68
2020/12/17 01:31:12;;;;;;;21.38;16.05;;;;;;;;;;5091797;28;20036;-67
2020/12/17 01:33:38;;;;;;;21.65;16.38;;;;;;;;;;5090720;28;20024;-68
2020/12/17 01:36:08;;;;;;;19.92;15.48;;;;;;;;;;5052960;28;20045;-67
2020/12/17 01:38:35;;;;;;;19.77;16.27;;;;;;;;;;5090655;28;20044;-68
2020/12/17 01:41:00;;;;;;;22.45;16.35;;;;;;;;;;5089881;28;20576;-68
2020/12/17 01:43:26;;;;;;;23.05;16.88;;;;;;;;;;5091743;28;20032;-67
2020/12/17 01:45:52;;;;;;;25.40;15.82;;;;;;;;;;5089891;28;20059;-67
2020/12/17 01:48:19;;;;;;;23.70;17.52;;;;;;;;;;5091025;28;20555;-68
2020/12/17 01:50:46;;;;;;;28.33;18.65;;;;;;;;;;5089712;28;20035;-67
2020/12/17 01:53:12;;;;;;;27.90;17.42;;;;;;;;;;5091513;28;20168;-67
2020/12/17 01:55:38;;;;;;;27.58;17.80;;;;;;;;;;5087650;28;20033;-67
2020/12/17 01:58:05;;;;;;;36.85;17.15;;;;;;;;;;5088398;28;20032;-68
2020/12/17 02:00:37;;;;;;;52.20;16.80;;;;;;;;;;5089506;28;20039;-67
2020/12/17 02:03:03;;;;;;;78.38;17.20;;;;;;;;;;5089442;28;20025;-67
2020/12/17 02:05:29;;;;;;;89.28;15.07;;;;;;;;;;5090099;28;20039;-68
2020/12/17 02:07:58;;;;;;;105.65;14.63;;;;;;;;;;5090573;28;20090;-68
2020/12/17 02:10:24;;;;;;;160.40;15.70;;;;;;;;;;5089477;28;20043;-68
2020/12/17 02:12:49;;;;;;;128.82;15.00;;;;;;;;;;5073129;28;20024;-67
2020/12/17 02:15:21;;;;;;;148.32;18.27;;;;;;;;;;5071284;28;20563;-68
2020/12/17 02:17:48;;;;;;;30.88;13.68;;;;;;;;;;5087478;28;20035;-68
2020/12/17 02:20:14;;;;;;;18.85;14.05;;;;;;;;;;5090878;28;20042;-67
2020/12/17 02:22:41;;;;;;;25.42;14.88;;;;;;;;;;5090371;28;20060;-67
2020/12/17 02:25:12;;;;;;;20.83;14.57;;;;;;;;;;5087558;28;20032;-67
2020/12/17 02:27:38;;;;;;;91.75;15.27;;;;;;;;;;5091602;28;20038;-68
2020/12/17 02:30:09;;;;;;;63.33;14.38;;;;;;;;;;5089616;28;20031;-68
2020/12/17 02:32:35;;;;;;;28.38;13.95;;;;;;;;;;5088388;28;20027;-68
2020/12/17 02:35:00;;;;;;;65.35;14.68;;;;;;;;;;5088673;28;20126;-67
2020/12/17 02:37:26;;;;;;;29.05;14.43;;;;;;;;;;5086871;28;20120;-67
2020/12/17 02:39:51;;;;;;;117.88;15.82;;;;;;;;;;5069835;28;20039;-67
2020/12/17 02:42:17;;;;;;;159.38;16.98;;;;;;;;;;5087833;28;20036;-68
2020/12/17 02:44:43;;;;;;;194.75;18.77;;;;;;;;;;5089334;28;20024;-67
2020/12/17 02:47:08;;;;;;;227.07;17.73;;;;;;;;;;5089934;28;20115;-68
2020/12/17 02:49:34;;;;;;;108.00;15.32;;;;;;;;;;5072166;28;20053;-67
2020/12/17 02:51:59;;;;;;;66.07;13.98;;;;;;;;;;5070793;28;20020;-67
2020/12/17 02:54:24;;;;;;;19.40;14.90;;;;;;;;;;5087412;28;20498;-67
2020/12/17 02:56:50;;;;;;;37.95;14.45;;;;;;;;;;5090919;28;20089;-68
2020/12/17 02:59:15;;;;;;;16.02;13.93;;;;;;;;;;5089238;28;20038;-67
2020/12/17 03:01:40;;;;;;;27.00;13.32;;;;;;;;;;5089502;28;20119;-67
2020/12/17 03:04:06;;;;;;;17.13;13.82;;;;;;;;;;5069466;28;20096;-67
2020/12/17 03:06:31;;;;;;;21.45;15.63;;;;;;;;;;5087743;28;20052;-67
2020/12/17 03:08:56;;;;;;;62.20;16.52;;;;;;;;;;5088100;28;20032;-68
2020/12/17 03:11:22;;;;;;;27.10;14.90;;;;;;;;;;5089709;28;20139;-68
2020/12/17 03:13:47;;;;;;;43.85;15.65;;;;;;;;;;5073284;28;20042;-68
2020/12/17 03:16:13;;;;;;;70.55;15.00;;;;;;;;;;5087075;28;20598;-67
2020/12/17 03:18:38;;;;;;;174.20;17.40;;;;;;;;;;5090047;28;20414;-67
2020/12/17 03:21:03;;;;;;;88.35;16.05;;;;;;;;;;5089903;28;20032;-68
2020/12/17 03:23:29;;;;;;;94.63;15.65;;;;;;;;;;5087317;28;20047;-68
2020/12/17 03:25:54;;;;;;;40.88;14.60;;;;;;;;;;5088045;28;20080;-67
2020/12/17 03:28:20;;;;;;;147.93;16.42;;;;;;;;;;5087227;28;20113;-67
2020/12/17 03:30:45;;;;;;;174.05;16.55;;;;;;;;;;5085063;28;20043;-67
2020/12/17 03:33:10;;;;;;;20.13;14.63;;;;;;;;;;5088926;28;20105;-67
2020/12/17 03:35:36;;;;;;;38.83;15.10;;;;;;;;;;5087696;28;20035;-68
2020/12/17 03:38:01;;;;;;;66.40;14.32;;;;;;;;;;5070679;28;20623;-68
2020/12/17 03:40:27;;;;;;;28.15;15.43;;;;;;;;;;5088737;28;20043;-61
2020/12/17 03:42:53;;;;;;;47.88;14.07;;;;;;;;;;5088424;28;20035;-61
2020/12/17 03:45:19;;;;;;;32.70;14.25;;;;;;;;;;5087052;28;20339;-61
2020/12/17 03:47:44;;;;;;;56.97;16.00;;;;;;;;;;5089570;28;20471;-61
2020/12/17 03:50:10;;;;;;;28.10;13.95;;;;;;;;;;5089529;28;20020;-60
2020/12/17 03:52:35;;;;;;;18.52;14.93;;;;;;;;;;5087842;28;20031;-61
2020/12/17 03:55:01;;;;;;;19.92;14.82;;;;;;;;;;5088948;28;20118;-61
2020/12/17 03:57:26;;;;;;;19.13;13.88;;;;;;;;;;5085585;28;20366;-61
2020/12/17 03:59:51;;;;;;;19.70;14.63;;;;;;;;;;5087319;28;20115;-61
2020/12/17 04:02:17;;;;;;;17.25;13.82;;;;;;;;;;5071339;28;20176;-61
2020/12/17 04:04:42;;;;;;;15.57;13.25;;;;;;;;;;5087530;28;20036;-61
2020/12/17 04:07:07;;;;;;;18.65;14.60;;;;;;;;;;5087481;28;20218;-60
2020/12/17 04:09:33;;;;;;;20.50;15.38;;;;;;;;;;5088094;28;20024;-61
2020/12/17 04:11:58;;;;;;;16.33;13.00;;;;;;;;;;5089295;28;20555;-61
2020/12/17 04:14:23;;;;;;;18.55;13.90;;;;;;;;;;5084246;28;20443;-61
2020/12/17 04:16:49;;;;;;;17.63;15.57;;;;;;;;;;5088414;28;20047;-61
2020/12/17 04:19:14;;;;;;;17.08;15.32;;;;;;;;;;5087474;28;20024;-61
2020/12/17 04:21:39;;;;;;;15.27;13.50;;;;;;;;;;5089697;28;20384;-61
2020/12/17 04:24:05;;;;;;;13.05;11.68;;;;;;;;;;5087002;28;20043;-61
2020/12/17 04:26:30;;;;;;;14.50;12.75;;;;;;;;;;5070842;28;20031;-61
2020/12/17 04:29:00;;;;;;;17.80;14.25;;;;;;;;;;5086714;28;20717;-61
2020/12/17 04:31:26;;;;;;;17.60;12.23;;;;;;;;;;5087591;28;20043;-61
2020/12/17 04:33:51;;;;;;;16.10;11.73;;;;;;;;;;5088214;28;20027;-61
2020/12/17 04:36:16;;;;;;;13.75;12.07;;;;;;;;;;5088271;28;20036;-61
2020/12/17 04:38:42;;;;;;;14.80;11.82;;;;;;;;;;5090010;28;20036;-61
2020/12/17 04:41:07;;;;;;;15.02;12.65;;;;;;;;;;5086355;28;20051;-61
2020/12/17 04:43:33;;;;;;;14.15;11.93;;;;;;;;;;5087954;28;20066;-61
2020/12/17 04:46:00;;;;;;;13.40;12.00;;;;;;;;;;5070172;28;20042;-61
2020/12/17 04:48:27;;;;;;;15.13;12.50;;;;;;;;;;5067204;28;20695;-61
2020/12/17 04:50:53;;;;;;;17.05;12.85;;;;;;;;;;5054489;28;20495;-61
2020/12/17 04:53:18;;;;;;;17.75;12.52;;;;;;;;;;5087271;28;20039;-61
2020/12/17 04:55:47;;;;;;;14.82;13.05;;;;;;;;;;5086497;28;20032;-61
2020/12/17 04:58:19;;;;;;;16.58;13.55;;;;;;;;;;5085545;28;20104;-61
2020/12/17 05:00:51;;;;;;;17.48;13.05;;;;;;;;;;5087451;28;20119;-61
2020/12/17 05:03:16;;;;;;;;;;;;;;;;;;5086330;28;20039;-61
2020/12/17 05:05:41;;;;;;;15.68;11.82;;;;;;;;;;5086669;28;19908;-61
2020/12/17 05:08:07;;;;;;;13.45;11.27;;;;;;;;;;5086842;28;20059;-61
2020/12/17 05:10:32;;;;;;;17.20;12.82;;;;;;;;;;5087690;28;20036;-61
2020/12/17 05:12:58;;;;;;;12.65;10.77;;;;;;;;;;5085610;28;20394;-61
2020/12/17 05:15:25;;;;;;;12.75;11.23;;;;;;;;;;5088787;28;20043;-61
2020/12/17 05:17:51;;;;;;;12.05;9.60;;;;;;;;;;5088095;28;20052;-61
2020/12/17 05:20:16;;;;;;;12.55;10.60;;;;;;;;;;5087929;28;20054;-61
2020/12/17 05:22:45;;;;;;;13.07;9.75;;;;;;;;;;5087981;28;20032;-60
2020/12/17 05:25:12;;;;;;;12.00;10.43;;;;;;;;;;5085792;28;20032;-61
2020/12/17 05:27:40;;;;;;;12.13;10.38;;;;;;;;;;5089500;28;20028;-61
2020/12/17 05:30:07;;;;;;;11.98;10.68;;;;;;;;;;5090012;28;20089;-61
2020/12/17 05:32:32;;;;;;;12.00;10.43;;;;;;;;;;5090719;28;20053;-61
2020/12/17 05:35:04;;;;;;;11.68;10.48;;;;;;;;;;5089215;28;20055;-61
2020/12/17 05:37:30;;;;;;;13.40;9.98;;;;;;;;;;5091877;28;20524;-61
2020/12/17 05:40:00;;;;;;;13.45;11.57;;;;;;;;;;5091550;28;20040;-61
2020/12/17 05:42:27;;;;;;;11.98;10.50;;;;;;;;;;5090884;28;20061;-61
2020/12/17 05:44:52;;;;;;;14.15;10.90;;;;;;;;;;5092679;28;20069;-61
2020/12/17 05:47:18;;;;;;;16.92;11.90;;;;;;;;;;5088177;28;20482;-61
2020/12/17 05:49:43;;;;;;;15.32;12.23;;;;;;;;;;5091272;28;20063;-61
2020/12/17 05:52:20;;;;;;;18.75;13.27;;;;;;;;;;5088978;28;20027;-61
2020/12/17 05:54:51;;;;;;;15.43;12.48;;;;;;;;;;5090113;28;20036;-61
2020/12/17 05:57:17;;;;;;;16.30;11.85;;;;;;;;;;5089102;28;20035;-61
2020/12/17 05:59:56;;;;;;;14.15;12.27;;;;;;;;;;5091161;28;20036;-61
2020/12/17 06:02:30;;;;;;;17.70;14.63;;;;;;;;;;5057980;28;20042;-61
2020/12/17 06:05:13;;;;;;;16.70;14.18;;;;;;;;;;5088614;28;20032;-61
2020/12/17 06:07:45;;;;;;;16.10;13.85;;;;;;;;;;5089821;28;20097;-61
2020/12/17 06:10:19;;;;;;;15.27;12.93;;;;;;;;;;5088512;28;20186;-61
2020/12/17 06:12:47;;;;;;;14.63;12.32;;;;;;;;;;5089838;28;20024;-61
2020/12/17 06:15:21;;;;;;;15.52;12.27;;;;;;;;;;5089906;28;20078;-61
2020/12/17 06:18:00;;;;;;;13.73;11.02;;;;;;;;;;5091309;28;20032;-61
2020/12/17 06:20:28;;;;;;;12.77;11.23;;;;;;;;;;5086613;28;20089;-61
2020/12/17 06:22:55;;;;;;;14.40;11.13;;;;;;;;;;5090921;28;20119;-61
2020/12/17 06:25:22;;;;;;;15.23;12.07;;;;;;;;;;5088737;28;20106;-61
2020/12/17 06:27:48;;;;;;;14.73;11.93;;;;;;;;;;5087492;28;20089;-61
2020/12/17 06:30:22;;;;;;;16.20;12.18;;;;;;;;;;5086931;28;20135;-61
2020/12/17 06:32:48;;;;;;;14.45;11.32;;;;;;;;;;5087570;28;20039;-61
2020/12/17 06:35:48;;;;;;;14.52;11.13;;;;;;;;;;5087119;28;20101;-61
2020/12/17 06:38:15;;;;;;;14.30;11.48;;;;;;;;;;5084538;28;20036;-61
2020/12/17 06:40:41;;;;;;;16.33;12.32;;;;;;;;;;5088813;28;20028;-61
2020/12/17 06:43:28;;;;;;;15.57;11.93;;;;;;;;;;5087889;28;20051;-61
2020/12/17 06:45:54;;;;;;;16.95;11.50;;;;;;;;;;5086568;28;20027;-61
2020/12/17 06:48:37;;;;;;;14.43;11.00;;;;;;;;;;5090518;28;20378;-61
2020/12/17 06:51:41;;;;;;;14.10;11.38;;;;;;;;;;5089851;28;20081;-61
2020/12/17 06:54:08;;;;;;;14.18;11.15;;;;;;;;;;5085920;28;20036;-61
2020/12/17 06:56:38;;;;;;;15.95;12.10;;;;;;;;;;5087938;28;20096;-61
2020/12/17 06:59:20;;;;;;;13.48;11.55;;;;;;;;;;5088829;28;20035;-61
2020/12/17 07:01:47;;;;;;;12.88;10.75;;;;;;;;;;5070256;28;20469;-61
2020/12/17 07:04:33;;;;;;;16.40;12.32;;;;;;;;;;5087823;28;20072;-61
2020/12/17 07:07:27;;;;;;;16.27;12.50;;;;;;;;;;5088148;28;20036;-62
2020/12/17 07:09:55;;;;;;;16.92;11.90;;;;;;;;;;5065331;28;20119;-61
2020/12/17 07:12:40;;;;;;;12.75;11.45;;;;;;;;;;5086747;28;20486;-61
2020/12/17 07:15:36;;;;;;;14.05;11.30;;;;;;;;;;5089883;28;20119;-61
2020/12/17 07:18:24;;;;;;;16.23;12.57;;;;;;;;;;5086629;28;20051;-61
2020/12/17 07:21:09;;;;;;;37.30;24.25;;;;;;;;;;5084585;28;20048;-61
2020/12/17 07:23:39;;;;;;;28.73;18.27;;;;;;;;;;5086511;28;20462;-61
2020/12/17 07:26:12;;;;;;;18.77;13.80;;;;;;;;;;5088169;28;20097;-61
2020/12/17 07:28:38;;;;;;;21.80;13.77;;;;;;;;;;5086243;28;20032;-62
2020/12/17 07:31:03;;;;;;;18.38;13.23;;;;;;;;;;5085991;28;20708;-60
2020/12/17 07:33:38;;;;;;;17.67;12.75;;;;;;;;;;5084312;28;20458;-60
2020/12/17 07:36:06;;;;;;;21.27;14.00;;;;;;;;;;5088143;28;20042;-61
2020/12/17 07:38:32;;;;;;;22.80;14.45;;;;;;;;;;5085726;28;20166;-61
2020/12/17 07:40:57;;;;;;;20.10;13.70;;;;;;;;;;5085383;28;20114;-61
2020/12/17 07:43:24;;;;;;;20.20;14.35;;;;;;;;;;5087252;28;20044;-61
2020/12/17 07:45:52;;;;;;;15.65;12.98;;;;;;;;;;5085850;28;20100;-60
2020/12/17 07:48:38;;;;;;;15.60;12.65;;;;;;;;;;5084881;28;20100;-61
2020/12/17 07:51:12;;;;;;;17.58;12.77;;;;;;;;;;5085353;28;20092;-61
2020/12/17 07:53:39;;;;;;;21.50;13.77;;;;;;;;;;5085997;28;20024;-61
2020/12/17 07:56:05;;;;;;;18.58;13.15;;;;;;;;;;5083972;28;20032;-68
2020/12/17 07:58:31;;;;;;;18.23;13.50;;;;;;;;;;5080617;28;20485;-67
2020/12/17 08:00:57;;;;;;;23.38;13.27;;;;;;;;;;5082551;28;20036;-67
2020/12/17 08:03:23;;;;;;;18.25;13.15;;;;;;;;;;5083736;28;20032;-66
2020/12/17 08:05:49;;;;;;;19.25;14.45;;;;;;;;;;5084433;28;20063;-68
2020/12/17 08:08:19;;;;;;;19.50;14.35;;;;;;;;;;5083166;28;20039;-68
2020/12/17 08:10:46;;;;;;;18.75;15.07;;;;;;;;;;5085603;28;20066;-66
2020/12/17 08:13:12;;;;;;;21.40;14.82;;;;;;;;;;5080245;28;20027;-67
2020/12/17 08:15:37;;;;;;;25.13;15.23;;;;;;;;;;5082857;28;20122;-66
2020/12/17 08:18:04;;;;;;;20.67;16.55;;;;;;;;;;5079659;28;20036;-67
2020/12/17 08:20:30;;;;;;;22.15;17.60;;;;;;;;;;5084672;28;20037;-68
2020/12/17 08:22:56;;;;;;;19.95;14.15;;;;;;;;;;5084165;28;20814;-67
2020/12/17 08:25:23;;;;;;;23.13;14.25;;;;;;;;;;5084284;28;20032;-67
2020/12/17 08:27:51;;;;;;;17.42;13.18;;;;;;;;;;5066470;28;20050;-67
2020/12/17 08:30:17;;;;;;;17.30;14.13;;;;;;;;;;5082705;28;20096;-67
2020/12/17 08:32:50;;;;;;;18.35;14.57;;;;;;;;;;5085493;28;20486;-68
2020/12/17 08:35:26;;;;;;;16.90;13.75;;;;;;;;;;5087037;28;20065;-68
2020/12/17 08:37:55;;;;;;;16.30;11.73;;;;;;;;;;5087411;28;20089;-67
2020/12/17 08:40:25;;;;;;;18.92;13.98;;;;;;;;;;5087054;28;20513;-68
2020/12/17 08:43:11;;;;;;;18.90;13.23;;;;;;;;;;5086681;28;20027;-67
2020/12/17 08:45:39;;;;;;;16.67;13.23;;;;;;;;;;5086434;28;20129;-67
2020/12/17 08:48:10;;;;;;;21.65;14.93;;;;;;;;;;5084735;28;20475;-68
2020/12/17 08:50:38;;;;;;;20.98;15.32;;;;;;;;;;5088868;28;20647;-68
2020/12/17 08:53:22;;;;;;;20.65;15.57;;;;;;;;;;5071005;28;20039;-68
2020/12/17 08:56:20;;;;;;;18.88;14.07;;;;;;;;;;5084414;28;20025;-67
2020/12/17 08:59:03;;;;;;;20.90;13.70;;;;;;;;;;5086096;28;20755;-68
2020/12/17 09:01:30;;;;;;;19.75;13.65;;;;;;;;;;5086947;28;20059;-67
2020/12/17 09:03:56;;;;;;;23.92;15.93;;;;;;;;;;5088087;28;20169;-68
2020/12/17 09:06:26;;;;;;;19.92;16.52;;;;;;;;;;5073055;28;20039;-68
2020/12/17 09:08:53;;;;;;;21.35;16.00;;;;;;;;;;5091123;28;20042;-68
2020/12/17 09:11:31;;;;;;;21.70;16.35;;;;;;;;;;5090595;28;20036;-67
2020/12/17 09:13:58;;;;;;;22.00;16.10;;;;;;;;;;5088262;28;20029;-68
2020/12/17 09:16:24;;;;;;;22.48;16.52;;;;;;;;;;5089204;28;20092;-67
2020/12/17 09:18:57;;;;;;;23.35;15.93;;;;;;;;;;5089594;28;20358;-68
2020/12/17 09:21:23;;;;;;;22.05;16.50;;;;;;;;;;5088239;28;20103;-68
2020/12/17 09:24:01;;;;;;;27.98;15.50;;;;;;;;;;5090236;28;20151;-67
2020/12/17 09:26:27;;;;;;;20.48;16.25;;;;;;;;;;5088718;28;20047;-68
2020/12/17 09:29:02;;;;;;;23.08;15.63;;;;;;;;;;5070499;28;20035;-71
2020/12/17 09:31:32;;;;;;;20.02;16.27;;;;;;;;;;5091216;28;20038;-68
2020/12/17 09:34:16;;;;;;;19.73;16.55;;;;;;;;;;5089880;28;20100;-68
2020/12/17 09:36:55;;;;;;;19.60;15.00;;;;;;;;;;5091354;28;20032;-68
2020/12/17 09:39:21;;;;;;;18.30;14.68;;;;;;;;;;5085941;28;20620;-68
2020/12/17 09:41:57;;;;;;;18.92;15.02;;;;;;;;;;5087750;28;20032;-68
2020/12/17 09:44:33;;;;;;;23.80;15.52;;;;;;;;;;5089578;28;20028;-68
2020/12/17 09:47:00;;;;;;;18.20;14.75;;;;;;;;;;5089710;28;20031;-68
2020/12/17 09:49:34;;;;;;;18.73;14.57;;;;;;;;;;5086909;28;20036;-68
2020/12/17 09:52:03;;;;;;;20.25;15.13;;;;;;;;;;5091248;28;20477;-69
2020/12/17 09:54:28;;;;;;;17.92;14.30;;;;;;;;;;5086682;28;20032;-69
2020/12/17 09:57:02;;;;;;;22.38;15.38;;;;;;;;;;5088742;28;20028;-69
2020/12/17 09:59:28;;;;;;;21.35;14.82;;;;;;;;;;5090095;28;20103;-67
2020/12/17 10:02:00;;;;;;;19.63;14.85;;;;;;;;;;5085229;28;20115;-67
2020/12/17 10:04:27;;;;;;;21.67;16.08;;;;;;;;;;5088190;28;20447;-68
2020/12/17 10:06:53;;;;;;;18.08;14.70;;;;;;;;;;5087957;28;20032;-68
2020/12/17 10:09:19;;;;;;;18.08;13.95;;;;;;;;;;5088468;28;20042;-68
2020/12/17 10:11:52;;;;;;;20.48;15.98;;;;;;;;;;5085622;28;20592;-68
2020/12/17 10:14:18;;;;;;;17.05;14.77;;;;;;;;;;5090938;28;20036;-68
2020/12/17 10:16:44;;;;;;;18.08;14.60;;;;;;;;;;5089106;28;20530;-68
2020/12/17 10:19:11;;;;;;;24.05;14.68;;;;;;;;;;5088610;28;20032;-68
2020/12/17 10:21:36;;;;;;;21.50;15.55;;;;;;;;;;5084948;28;20063;-68
2020/12/17 10:24:03;;;;;;;18.20;14.70;;;;;;;;;;5089500;28;20086;-67
2020/12/17 10:26:29;;;;;;;21.92;15.75;;;;;;;;;;5087216;28;20247;-67
2020/12/17 10:28:54;;;;;;;24.20;14.75;;;;;;;;;;5086002;28;20582;-68
2020/12/17 10:31:20;;;;;;;20.52;15.43;;;;;;;;;;5087130;28;20073;-68
2020/12/17 10:33:45;;;;;;;18.52;15.43;;;;;;;;;;5086288;28;20596;-68
2020/12/17 10:36:10;;;;;;;18.65;15.45;;;;;;;;;;5086646;28;20125;-68
2020/12/17 10:38:36;;;;;;;18.10;16.13;;;;;;;;;;5089255;28;20029;-68
2020/12/17 10:41:01;;;;;;;20.92;16.10;;;;;;;;;;5086092;28;20028;-68
2020/12/17 10:43:26;;;;;;;22.52;16.75;;;;;;;;;;5088302;28;20028;-68
2020/12/17 10:45:52;;;;;;;20.10;17.77;;;;;;;;;;5089148;28;20028;-68
2020/12/17 10:48:17;;;;;;;20.80;17.02;;;;;;;;;;5087624;28;20028;-67
2020/12/17 10:50:42;;;;;;;19.52;16.27;;;;;;;;;;5087682;28;20099;-68
2020/12/17 10:53:08;;;;;;;29.15;16.25;;;;;;;;;;5068586;28;20622;-67
2020/12/17 10:55:33;;;;;;;18.85;15.60;;;;;;;;;;5087969;28;20040;-68
2020/12/17 10:57:58;;;;;;;20.75;16.27;;;;;;;;;;5067644;28;20490;-67
2020/12/17 11:00:24;;;;;;;23.40;16.10;;;;;;;;;;5068729;28;20363;-67
2020/12/17 11:02:49;;;;;;;20.48;16.25;;;;;;;;;;5085767;28;20112;-68
2020/12/17 11:05:15;;;;;;;20.70;16.52;;;;;;;;;;5085643;28;20044;-67
2020/12/17 11:07:40;;;;;;;20.45;16.45;;;;;;;;;;5088336;28;20031;-67
2020/12/17 11:10:06;;;;;;;21.10;16.20;;;;;;;;;;5085286;28;20021;-68
2020/12/17 11:12:31;;;;;;;20.58;15.25;;;;;;;;;;5069861;28;20016;-67
2020/12/17 11:14:56;;;;;;;18.88;16.65;;;;;;;;;;5086706;28;20169;-67
2020/12/17 11:17:22;;;;;;;18.48;16.58;;;;;;;;;;5075003;28;20071;-68
2020/12/17 11:19:47;;;;;;;20.23;16.33;;;;;;;;;;5082741;28;20028;-68
2020/12/17 11:22:13;;;;;;;22.13;15.43;;;;;;;;;;5084399;28;20032;-68
2020/12/17 11:24:39;;;;;;;23.33;16.23;;;;;;;;;;5084704;28;20639;-68
2020/12/17 11:27:04;;;;;;;19.27;15.68;;;;;;;;;;5083164;28;20027;-68
2020/12/17 11:29:30;;;;;;;21.55;15.48;;;;;;;;;;5086751;28;20039;-68
2020/12/17 11:31:55;;;;;;;17.70;14.13;;;;;;;;;;5085577;28;20084;-68
2020/12/17 11:34:20;;;;;;;25.33;15.35;;;;;;;;;;5082465;28;20071;-69
2020/12/17 11:36:46;;;;;;;19.85;15.00;;;;;;;;;;5086083;28;20035;-70
2020/12/17 11:39:12;;;;;;;24.80;15.95;;;;;;;;;;5064837;28;20071;-68
2020/12/17 11:41:38;;;;;;;21.70;16.58;;;;;;;;;;5084029;28;20027;-68
2020/12/17 11:44:03;;;;;;;21.73;14.32;;;;;;;;;;5084031;28;20036;-68
2020/12/17 11:46:29;;;;;;;20.85;15.05;;;;;;;;;;5068318;28;20043;-68
2020/12/17 11:48:54;;;;;;;17.20;14.32;;;;;;;;;;5087427;28;20034;-69
2020/12/17 11:51:19;;;;;;;18.65;15.32;;;;;;;;;;5087627;28;20074;-68
2020/12/17 11:53:45;;;;;;;18.02;14.75;;;;;;;;;;5086718;28;20446;-69
2020/12/17 11:56:14;;;;;;;18.42;14.20;;;;;;;;;;5071505;28;20063;-68
2020/12/17 11:58:40;;;;;;;19.20;15.93;;;;;;;;;;5068447;28;20036;-68
2020/12/17 12:01:06;;;;;;;19.65;16.70;;;;;;;;;;5088337;28;20024;-70
2020/12/17 12:03:32;;;;;;;18.25;14.98;;;;;;;;;;5085595;28;20054;-69
2020/12/17 12:05:57;;;;;;;19.73;14.10;;;;;;;;;;5088041;28;20526;-68
2020/12/17 12:08:23;;;;;;;20.75;15.15;;;;;;;;;;5087188;28;20111;-69
2020/12/17 12:10:49;;;;;;;17.70;14.50;;;;;;;;;;5089576;28;20122;-65
2020/12/17 12:13:15;;;;;;;15.88;13.98;;;;;;;;;;5088019;28;20024;-66
2020/12/17 12:15:40;;;;;;;21.50;14.77;;;;;;;;;;5086106;28;20042;-67
2020/12/17 12:18:05;;;;;;;16.67;14.05;;;;;;;;;;5085158;28;20043;-66
2020/12/17 12:20:31;;;;;;;22.30;14.90;;;;;;;;;;5085692;28;20027;-67
2020/12/17 12:22:56;;;;;;;17.70;13.95;;;;;;;;;;5085064;28;20090;-66
2020/12/17 12:25:21;;;;;;;19.55;14.48;;;;;;;;;;5085343;28;20040;-66
2020/12/17 12:27:48;;;;;;;17.83;14.88;;;;;;;;;;5068010;28;20040;-66
2020/12/17 12:30:14;;;;;;;21.67;14.18;;;;;;;;;;5063288;28;20739;-63
2020/12/17 12:32:39;;;;;;;19.10;14.05;;;;;;;;;;5082169;28;20028;-62
2020/12/17 12:35:05;;;;;;;18.27;14.23;;;;;;;;;;5086491;28;20047;-62
2020/12/17 12:37:30;;;;;;;23.30;15.35;;;;;;;;;;5085870;28;20089;-62
2020/12/17 12:39:55;;;;;;;18.67;14.23;;;;;;;;;;5082908;28;20027;-62
2020/12/17 12:42:21;;;;;;;18.90;13.45;;;;;;;;;;5081607;28;20047;-63
2020/12/17 12:44:46;;;;;;;17.73;14.38;;;;;;;;;;5081037;28;20646;-62
2020/12/17 12:47:11;;;;;;;18.55;14.07;;;;;;;;;;5077067;28;20171;-61
2020/12/17 12:49:37;;;;;;;16.48;13.45;;;;;;;;;;5079376;28;20117;-62
2020/12/17 12:52:02;;;;;;;19.77;13.23;;;;;;;;;;5081935;28;20028;-60
2020/12/17 12:54:27;;;;;;;15.57;13.38;;;;;;;;;;5084176;28;20032;-61
2020/12/17 12:56:53;;;;;;;14.90;13.15;;;;;;;;;;5085547;28;20477;-60
2020/12/17 12:59:18;;;;;;;16.90;12.43;;;;;;;;;;5083761;28;20500;-61
2020/12/17 13:01:44;;;;;;;17.33;12.68;;;;;;;;;;5081970;28;20059;-62
2020/12/17 13:04:09;;;;;;;18.83;13.48;;;;;;;;;;5083668;28;20044;-62
2020/12/17 13:06:35;;;;;;;21.50;13.50;;;;;;;;;;5083502;28;20036;-63
2020/12/17 13:09:03;;;;;;;15.57;13.13;;;;;;;;;;5083723;28;20032;-64
2020/12/17 13:11:28;;;;;;;15.88;13.40;;;;;;;;;;5084444;28;20454;-62
2020/12/17 13:13:54;;;;;;;15.13;12.85;;;;;;;;;;5082936;28;20036;-63
2020/12/17 13:16:30;;;;;;;15.18;12.13;;;;;;;;;;5081978;28;20100;-62
2020/12/17 13:18:56;;;;;;;15.63;12.90;;;;;;;;;;5082674;28;20028;-62
2020/12/17 13:21:23;;;;;;;14.32;12.27;;;;;;;;;;5082915;28;20032;-63
2020/12/17 13:23:50;;;;;;;14.32;12.77;;;;;;;;;;5082313;28;20364;-64
2020/12/17 13:26:17;;;;;;;17.85;12.55;;;;;;;;;;5079404;28;20093;-64
2020/12/17 13:28:42;;;;;;;17.20;13.48;;;;;;;;;;5065096;28;20466;-64
2020/12/17 13:31:08;;;;;;;19.60;12.32;;;;;;;;;;5077579;28;20061;-63
2020/12/17 13:33:35;;;;;;;16.98;12.40;;;;;;;;;;5079775;28;20134;-64
2020/12/17 13:36:01;;;;;;;15.68;12.98;;;;;;;;;;5081142;28;20028;-62
2020/12/17 13:38:26;;;;;;;18.77;13.48;;;;;;;;;;5082024;28;20582;-63
2020/12/17 13:40:52;;;;;;;17.08;13.43;;;;;;;;;;5066887;28;20066;-63
2020/12/17 13:43:17;;;;;;;18.95;13.57;;;;;;;;;;5068870;28;20403;-62
2020/12/17 13:45:42;;;;;;;18.02;14.05;;;;;;;;;;5085579;28;20064;-61
2020/12/17 13:48:08;;;;;;;16.77;13.07;;;;;;;;;;5084770;28;20048;-61
2020/12/17 13:50:33;;;;;;;25.10;13.63;;;;;;;;;;5090249;28;20424;-62
2020/12/17 13:52:59;;;;;;;17.63;13.75;;;;;;;;;;5090951;28;20477;-63
2020/12/17 13:55:24;;;;;;;19.33;13.15;;;;;;;;;;5091007;28;20490;-62
2020/12/17 13:57:49;;;;;;;17.92;13.88;;;;;;;;;;5090077;28;20035;-62
2020/12/17 14:00:15;;;;;;;22.60;14.13;;;;;;;;;;5086232;28;20111;-63
2020/12/17 14:02:40;;;;;;;17.38;12.75;;;;;;;;;;5091373;28;20107;-63
2020/12/17 14:05:06;;;;;;;13.60;12.00;;;;;;;;;;5089530;28;20089;-62
2020/12/17 14:07:31;;;;;;;18.08;13.30;;;;;;;;;;5088151;28;20400;-62
2020/12/17 14:09:57;;;;;;;15.13;12.90;;;;;;;;;;5073769;28;20041;-63
2020/12/17 14:12:23;;;;;;;17.00;12.65;;;;;;;;;;5083063;28;20043;-63
2020/12/17 14:15:06;;;;;;;16.10;12.30;;;;;;;;;;5077993;28;20485;-62
2020/12/17 14:17:51;;;;;;;14.45;12.60;;;;;;;;;;5086363;28;20721;-63
2020/12/17 16:56:43;;;;;;;4.53;2.88;;;;;;;;;;5058181;28;21131;-59